createdAt,value
2023-05-05T00:00:31.744Z,1490.00
2023-05-05T00:01:31.757Z,1501.00
2023-05-05T00:02:31.835Z,1439.00
2023-05-05T00:03:31.806Z,1480.00
2023-05-05T00:04:31.748Z,1442.00
2023-05-05T00:05:31.730Z,1487.00
2023-05-05T00:06:31.725Z,1473.00
2023-05-05T00:07:31.750Z,1468.00
2023-05-05T00:08:31.736Z,1468.00
2023-05-05T00:09:31.744Z,1471.00
2023-05-05T00:10:31.725Z,1450.00
2023-05-05T00:11:31.740Z,1486.00
2023-05-05T00:12:31.787Z,1453.00
2023-05-05T00:13:31.735Z,1470.00
2023-05-05T00:14:31.738Z,1437.00
2023-05-05T00:15:31.730Z,1460.00
2023-05-05T00:16:31.749Z,1473.00
2023-05-05T00:17:31.766Z,1464.00
2023-05-05T00:18:31.744Z,1458.00
2023-05-05T00:19:31.759Z,1445.00
2023-05-05T00:20:31.765Z,1458.00
2023-05-05T00:21:31.750Z,1416.00
2023-05-05T00:22:31.754Z,1456.00
2023-05-05T00:23:31.773Z,1437.00
2023-05-05T00:24:31.761Z,1460.00
2023-05-05T00:25:31.764Z,1442.00
2023-05-05T00:26:31.776Z,1452.00
2023-05-05T00:27:31.759Z,1448.00
2023-05-05T00:28:31.789Z,1437.00
2023-05-05T00:29:31.773Z,1430.00
2023-05-05T00:30:31.809Z,1415.00
2023-05-05T00:31:31.797Z,1452.00
2023-05-05T00:32:31.814Z,1420.00
2023-05-05T00:33:31.788Z,1433.00
2023-05-05T00:34:31.785Z,1443.00
2023-05-05T00:35:32.520Z,1449.00
2023-05-05T00:36:31.797Z,1434.00
2023-05-05T00:37:31.802Z,1424.00
2023-05-05T00:38:31.820Z,1414.00
2023-05-05T00:39:31.821Z,1441.00
2023-05-05T00:40:31.820Z,1413.00
2023-05-05T00:41:31.831Z,1450.00
2023-05-05T00:42:31.815Z,1447.00
2023-05-05T00:43:31.819Z,1423.00
2023-05-05T00:44:31.817Z,1448.00
2023-05-05T00:45:31.817Z,1406.00
2023-05-05T00:46:31.847Z,1405.00
2023-05-05T00:47:31.835Z,1430.00
2023-05-05T00:48:31.835Z,1425.00
2023-05-05T00:49:31.855Z,1422.00
2023-05-05T00:50:31.857Z,1389.00
2023-05-05T00:51:31.846Z,1408.00
2023-05-05T00:52:31.849Z,1393.00
2023-05-05T00:53:31.854Z,1418.00
2023-05-05T00:54:31.858Z,1419.00
2023-05-05T00:55:31.869Z,1452.00
2023-05-05T00:56:31.874Z,1429.00
2023-05-05T00:57:31.870Z,1403.00
2023-05-05T00:58:31.874Z,1419.00
2023-05-05T00:59:31.876Z,1437.00
2023-05-05T01:00:31.889Z,1378.00
2023-05-05T01:01:31.914Z,1442.00
2023-05-05T01:02:31.986Z,1404.00
2023-05-05T01:03:31.988Z,1427.00
2023-05-05T01:04:31.915Z,1435.00
2023-05-05T01:05:31.930Z,1416.00
2023-05-05T01:06:31.937Z,1431.00
2023-05-05T01:07:31.940Z,1398.00
2023-05-05T01:08:31.962Z,1420.00
2023-05-05T01:09:31.973Z,1413.00
2023-05-05T01:10:32.946Z,1406.00
2023-05-05T01:11:31.975Z,1373.00
2023-05-05T01:12:32.038Z,1403.00
2023-05-05T01:13:31.986Z,1383.00
2023-05-05T01:14:31.993Z,1412.00
2023-05-05T01:15:32.006Z,1373.00
2023-05-05T01:16:32.075Z,1398.00
2023-05-05T01:17:32.064Z,1392.00
2023-05-05T01:18:32.041Z,1401.00
2023-05-05T01:19:32.043Z,1414.00
2023-05-05T01:20:32.057Z,1393.00
2023-05-05T01:21:32.073Z,1412.00
2023-05-05T01:22:32.110Z,1384.00
2023-05-05T01:23:32.077Z,1404.00
2023-05-05T01:24:32.091Z,1395.00
2023-05-05T01:25:32.087Z,1396.00
2023-05-05T01:26:32.103Z,1364.00
2023-05-05T01:27:32.092Z,1399.00
2023-05-05T01:28:32.098Z,1381.00
2023-05-05T01:29:32.108Z,1397.00
2023-05-05T01:30:32.122Z,1397.00
2023-05-05T01:31:32.160Z,1392.00
2023-05-05T01:32:32.145Z,1399.00
2023-05-05T01:33:32.144Z,1412.00
2023-05-05T01:34:32.163Z,1400.00
2023-05-05T01:35:32.187Z,1363.00
2023-05-05T01:36:32.186Z,1404.00
2023-05-05T01:37:32.222Z,1378.00
2023-05-05T01:38:32.210Z,1377.00
2023-05-05T01:39:32.958Z,1358.00
2023-05-05T01:40:32.224Z,1401.00
2023-05-05T01:41:32.241Z,1382.00
2023-05-05T01:42:32.251Z,1369.00
2023-05-05T01:43:32.259Z,1381.00
2023-05-05T01:44:32.269Z,1355.00
2023-05-05T01:45:32.342Z,1388.00
2023-05-05T01:46:32.294Z,1381.00
2023-05-05T01:47:32.317Z,1386.00
2023-05-05T01:48:32.310Z,1385.00
2023-05-05T01:49:32.317Z,1356.00
2023-05-05T01:50:32.324Z,1365.00
2023-05-05T01:51:32.333Z,1371.00
2023-05-05T01:52:32.343Z,1377.00
2023-05-05T01:53:32.353Z,1384.00
2023-05-05T01:54:32.371Z,1380.00
2023-05-05T01:55:32.392Z,1325.00
2023-05-05T01:56:32.395Z,1363.00
2023-05-05T01:57:32.423Z,1378.00
2023-05-05T01:58:32.416Z,1357.00
2023-05-05T01:59:32.435Z,1346.00
2023-05-05T02:00:32.460Z,1340.00
2023-05-05T02:01:32.494Z,1370.00
2023-05-05T02:02:32.498Z,1377.00
2023-05-05T02:03:32.504Z,1383.00
2023-05-05T02:04:32.509Z,1336.00
2023-05-05T02:05:32.528Z,1362.00
2023-05-05T02:06:32.620Z,1350.00
2023-05-05T02:07:32.551Z,1378.00
2023-05-05T02:08:32.570Z,1352.00
2023-05-05T02:09:32.564Z,1332.00
2023-05-05T02:10:32.584Z,1349.00
2023-05-05T02:11:32.640Z,1366.00
2023-05-05T02:12:32.659Z,1348.00
2023-05-05T02:13:32.653Z,1357.00
2023-05-05T02:14:32.631Z,1325.00
2023-05-05T02:15:32.695Z,1358.00
2023-05-05T02:16:32.652Z,1346.00
2023-05-05T02:17:32.710Z,1330.00
2023-05-05T02:18:32.685Z,1346.00
2023-05-05T02:19:32.701Z,1303.00
2023-05-05T02:20:32.715Z,1317.00
2023-05-05T02:21:32.723Z,1318.00
2023-05-05T02:22:32.746Z,1329.00
2023-05-05T02:23:32.758Z,1370.00
2023-05-05T02:24:32.762Z,1339.00
2023-05-05T02:25:32.771Z,1317.00
2023-05-05T02:26:32.786Z,1343.00
2023-05-05T02:27:32.805Z,1328.00
2023-05-05T02:28:32.831Z,1340.00
2023-05-05T02:29:32.845Z,1374.00
2023-05-05T02:30:32.846Z,1340.00
2023-05-05T02:31:32.914Z,1337.00
2023-05-05T02:32:32.916Z,1317.00
2023-05-05T02:33:32.893Z,1341.00
2023-05-05T02:34:32.919Z,1351.00
2023-05-05T02:35:32.945Z,1326.00
2023-05-05T02:36:32.948Z,1315.00
2023-05-05T02:37:32.960Z,1300.00
2023-05-05T02:38:33.063Z,1350.00
2023-05-05T02:39:32.994Z,1325.00
2023-05-05T02:40:33.009Z,1287.00
2023-05-05T02:41:33.023Z,1345.00
2023-05-05T02:42:33.050Z,1342.00
2023-05-05T02:43:33.068Z,1284.00
2023-05-05T02:44:33.070Z,1336.00
2023-05-05T02:45:33.096Z,1314.00
2023-05-05T02:46:33.126Z,1290.00
2023-05-05T02:47:33.124Z,1327.00
2023-05-05T02:48:33.113Z,1319.00
2023-05-05T02:49:33.129Z,1311.00
2023-05-05T02:50:33.148Z,1312.00
2023-05-05T02:51:33.157Z,1313.00
2023-05-05T02:52:33.226Z,1297.00
2023-05-05T02:53:33.172Z,1311.00
2023-05-05T02:54:33.202Z,1304.00
2023-05-05T02:55:33.205Z,1324.00
2023-05-05T02:56:33.251Z,1289.00
2023-05-05T02:57:33.239Z,1322.00
2023-05-05T02:58:33.237Z,1312.00
2023-05-05T02:59:33.345Z,1320.00
2023-05-05T03:00:33.347Z,1319.00
2023-05-05T03:01:33.307Z,1305.00
2023-05-05T03:02:33.410Z,1282.00
2023-05-05T03:03:33.403Z,1286.00
2023-05-05T03:04:33.369Z,1305.00
2023-05-05T03:05:33.384Z,1300.00
2023-05-05T03:06:33.391Z,1320.00
2023-05-05T03:07:33.385Z,1272.00
2023-05-05T03:08:33.448Z,1301.00
2023-05-05T03:09:33.480Z,1293.00
2023-05-05T03:10:33.449Z,1306.00
2023-05-05T03:11:33.462Z,1310.00
2023-05-05T03:12:33.490Z,1266.00
2023-05-05T03:13:33.497Z,1301.00
2023-05-05T03:14:33.594Z,1314.00
2023-05-05T03:15:33.536Z,1298.00
2023-05-05T03:16:33.601Z,1286.00
2023-05-05T03:17:33.585Z,1267.00
2023-05-05T03:18:33.576Z,1293.00
2023-05-05T03:19:33.587Z,1275.00
2023-05-05T03:20:33.619Z,1291.00
2023-05-05T03:21:33.634Z,1293.00
2023-05-05T03:22:33.637Z,1284.00
2023-05-05T03:23:33.668Z,1281.00
2023-05-05T03:24:33.684Z,1280.00
2023-05-05T03:25:33.698Z,1244.00
2023-05-05T03:26:33.712Z,1298.00
2023-05-05T03:27:33.740Z,1286.00
2023-05-05T03:28:33.757Z,1265.00
2023-05-05T03:29:33.766Z,1275.00
2023-05-05T03:30:33.787Z,1299.00
2023-05-05T03:31:33.856Z,1268.00
2023-05-05T03:32:33.851Z,1256.00
2023-05-05T03:33:33.843Z,1275.00
2023-05-05T03:34:33.864Z,1273.00
2023-05-05T03:35:33.889Z,1290.00
2023-05-05T03:36:33.903Z,1260.00
2023-05-05T03:37:33.947Z,1293.00
2023-05-05T03:38:33.940Z,1248.00
2023-05-05T03:39:33.958Z,1272.00
2023-05-05T03:40:43.569Z,1284.00
2023-05-05T03:41:34.930Z,1285.00
2023-05-05T03:42:33.884Z,1239.00
2023-05-05T03:43:33.850Z,1275.00
2023-05-05T03:44:33.802Z,1281.00
2023-05-05T03:45:33.798Z,1275.00
2023-05-05T03:46:33.726Z,1267.00
2023-05-05T03:47:33.764Z,1283.00
2023-05-05T03:48:33.641Z,1298.00
2023-05-05T03:49:33.607Z,1262.00
2023-05-05T03:50:33.632Z,1261.00
2023-05-05T03:51:33.641Z,1275.00
2023-05-05T03:52:33.665Z,1250.00
2023-05-05T03:53:33.692Z,1286.00
2023-05-05T03:54:33.700Z,1275.00
2023-05-05T03:55:33.724Z,1275.00
2023-05-05T03:56:33.757Z,1276.00
2023-05-05T03:57:33.772Z,1258.00
2023-05-05T03:58:33.790Z,1254.00
2023-05-05T03:59:33.816Z,1263.00
2023-05-05T04:00:33.832Z,1243.00
2023-05-05T04:01:33.849Z,1261.00
2023-05-05T04:02:33.929Z,1264.00
2023-05-05T04:03:33.951Z,1256.00
2023-05-05T04:04:33.969Z,1274.00
2023-05-05T04:05:33.963Z,1241.00
2023-05-05T04:06:33.979Z,1250.00
2023-05-05T04:07:34.000Z,1254.00
2023-05-05T04:08:34.020Z,1246.00
2023-05-05T04:09:34.051Z,1262.00
2023-05-05T04:10:34.077Z,1232.00
2023-05-05T04:11:34.100Z,1256.00
2023-05-05T04:12:34.167Z,1234.00
2023-05-05T04:13:34.137Z,1252.00
2023-05-05T04:14:34.179Z,1235.00
2023-05-05T04:15:34.184Z,1259.00
2023-05-05T04:16:34.210Z,1256.00
2023-05-05T04:17:34.247Z,1234.00
2023-05-05T04:18:34.258Z,1256.00
2023-05-05T04:19:34.269Z,1238.00
2023-05-05T04:20:34.271Z,1227.00
2023-05-05T04:21:34.305Z,1231.00
2023-05-05T04:22:34.325Z,1217.00
2023-05-05T04:23:34.447Z,1258.00
2023-05-05T04:24:34.361Z,1237.00
2023-05-05T04:25:34.392Z,1253.00
2023-05-05T04:26:34.419Z,1211.00
2023-05-05T04:27:34.436Z,1206.00
2023-05-05T04:28:34.477Z,1205.00
2023-05-05T04:29:34.471Z,1215.00
2023-05-05T04:30:34.499Z,1216.00
2023-05-05T04:31:34.541Z,1228.00
2023-05-05T04:32:34.541Z,1193.00
2023-05-05T04:33:34.555Z,1234.00
2023-05-05T04:34:34.589Z,1183.00
2023-05-05T04:35:34.592Z,1204.00
2023-05-05T04:36:34.617Z,1220.00
2023-05-05T04:37:34.635Z,1218.00
2023-05-05T04:38:34.650Z,1203.00
2023-05-05T04:39:34.662Z,1222.00
2023-05-05T04:40:34.677Z,1223.00
2023-05-05T04:41:34.715Z,1203.00
2023-05-05T04:42:34.722Z,1186.00
2023-05-05T04:43:34.738Z,1195.00
2023-05-05T04:44:34.751Z,1210.00
2023-05-05T04:45:34.767Z,1207.00
2023-05-05T04:46:34.839Z,1197.00
2023-05-05T04:47:34.842Z,1217.00
2023-05-05T04:48:34.832Z,1187.00
2023-05-05T04:49:34.851Z,1194.00
2023-05-05T04:50:34.870Z,1197.00
2023-05-05T04:51:34.883Z,1168.00
2023-05-05T04:52:34.897Z,1172.00
2023-05-05T04:53:34.912Z,1195.00
2023-05-05T04:54:34.928Z,1178.00
2023-05-05T04:55:34.951Z,1192.00
2023-05-05T04:56:34.960Z,1191.00
2023-05-05T04:57:34.965Z,1191.00
2023-05-05T04:58:34.979Z,1186.00
2023-05-05T04:59:34.985Z,1162.00
2023-05-05T05:00:35.010Z,1201.00
2023-05-05T05:01:37.739Z,1155.00
2023-05-05T05:02:35.063Z,1193.00
2023-05-05T05:03:35.061Z,1170.00
2023-05-05T05:04:34.884Z,1184.00
2023-05-05T05:05:34.845Z,1154.00
2023-05-05T05:06:34.806Z,1206.00
2023-05-05T05:07:34.775Z,1174.00
2023-05-05T05:08:34.715Z,1193.00
2023-05-05T05:09:34.677Z,1144.00
2023-05-05T05:10:34.638Z,1160.00
2023-05-05T05:11:34.592Z,1175.00
2023-05-05T05:12:34.598Z,1152.00
2023-05-05T05:13:34.508Z,1137.00
2023-05-05T05:14:34.464Z,1189.00
2023-05-05T05:15:34.434Z,1174.00
2023-05-05T05:16:34.474Z,1160.00
2023-05-05T05:17:34.408Z,1151.00
2023-05-05T05:18:34.332Z,1178.00
2023-05-05T05:19:34.283Z,1177.00
2023-05-05T05:20:34.263Z,1148.00
2023-05-05T05:21:34.233Z,1187.00
2023-05-05T05:22:34.167Z,1183.00
2023-05-05T05:23:34.133Z,1163.00
2023-05-05T05:24:34.092Z,1199.00
2023-05-05T05:25:34.051Z,1237.00
2023-05-05T05:26:33.997Z,1197.00
2023-05-05T05:27:33.940Z,1238.00
2023-05-05T05:28:33.899Z,1192.00
2023-05-05T05:29:33.857Z,1262.00
2023-05-05T05:30:33.798Z,1279.00
2023-05-05T05:31:33.783Z,1278.00
2023-05-05T05:32:33.721Z,1316.00
2023-05-05T05:33:33.679Z,1289.00
2023-05-05T05:34:33.641Z,1322.00
2023-05-05T05:35:33.640Z,1328.00
2023-05-05T05:36:33.574Z,1299.00
2023-05-05T05:37:33.505Z,1308.00
2023-05-05T05:38:33.453Z,1257.00
2023-05-05T05:39:33.406Z,1270.00
2023-05-05T05:40:33.362Z,1263.00
2023-05-05T05:41:33.328Z,1271.00
2023-05-05T05:42:33.274Z,1281.00
2023-05-05T05:43:33.304Z,1252.00
2023-05-05T05:44:33.181Z,1267.00
2023-05-05T05:45:33.129Z,1281.00
2023-05-05T05:46:33.244Z,1255.00
2023-05-05T05:47:33.105Z,1292.00
2023-05-05T05:48:32.996Z,1268.00
2023-05-05T05:49:32.929Z,1259.00
2023-05-05T05:50:32.919Z,1261.00
2023-05-05T05:51:32.863Z,1275.00
2023-05-05T05:52:32.778Z,1270.00
2023-05-05T05:53:32.746Z,1283.00
2023-05-05T05:54:32.691Z,1260.00
2023-05-05T05:55:32.640Z,1288.00
2023-05-05T05:56:32.617Z,1266.00
2023-05-05T05:57:32.552Z,1256.00
2023-05-05T05:58:32.495Z,1252.00
2023-05-05T05:59:32.448Z,1248.00
2023-05-05T06:00:32.396Z,1231.00
2023-05-05T06:01:32.376Z,1241.00
2023-05-05T06:02:32.356Z,1241.00
2023-05-05T06:04:32.272Z,1225.00
2023-05-05T06:05:32.185Z,1214.00
2023-05-05T06:06:32.118Z,1219.00
2023-05-05T06:07:32.059Z,1219.00
2023-05-05T06:08:32.006Z,1206.00
2023-05-05T06:09:31.954Z,1208.00
2023-05-05T06:10:32.233Z,1199.00
2023-05-05T06:11:31.873Z,1179.00
2023-05-05T06:12:31.867Z,1167.00
2023-05-05T06:13:31.813Z,1164.00
2023-05-05T06:14:31.772Z,1161.00
2023-05-05T06:15:31.815Z,1158.00
2023-05-05T06:16:31.813Z,1132.00
2023-05-05T06:17:31.783Z,1156.00
2023-05-05T06:18:31.778Z,1152.00
2023-05-05T06:19:31.766Z,1155.00
2023-05-05T06:20:31.758Z,1143.00
2023-05-05T06:21:31.766Z,1143.00
2023-05-05T06:22:31.736Z,1153.00
2023-05-05T06:23:31.732Z,1125.00
2023-05-05T06:24:31.719Z,1152.00
2023-05-05T06:25:31.768Z,1142.00
2023-05-05T06:26:31.711Z,1144.00
2023-05-05T06:27:31.686Z,1129.00
2023-05-05T06:28:31.729Z,1136.00
2023-05-05T06:29:31.686Z,1142.00
2023-05-05T06:30:31.674Z,1139.00
2023-05-05T06:31:32.655Z,1141.00
2023-05-05T06:32:31.591Z,1146.00
2023-05-05T06:33:31.494Z,1159.00
2023-05-05T06:34:31.453Z,1142.00
2023-05-05T06:35:31.376Z,1154.00
2023-05-05T06:36:31.348Z,1182.00
2023-05-05T06:37:31.257Z,1231.00
2023-05-05T06:38:31.184Z,1311.00
2023-05-05T06:39:31.116Z,1372.00
2023-05-05T06:40:31.647Z,1399.00
2023-05-05T06:41:30.992Z,1431.00
2023-05-05T06:42:30.918Z,1461.00
2023-05-05T06:43:30.858Z,1500.00
2023-05-05T06:44:30.798Z,1553.00
2023-05-05T06:45:30.739Z,1622.00
2023-05-05T06:46:30.704Z,1642.00
2023-05-05T06:47:30.621Z,1680.00
2023-05-05T06:48:30.536Z,1703.00
2023-05-05T06:49:30.456Z,1734.00
2023-05-05T06:50:30.398Z,1766.00
2023-05-05T06:51:30.373Z,1808.00
2023-05-05T06:52:30.321Z,1838.00
2023-05-05T06:53:30.299Z,1864.00
2023-05-05T06:54:30.433Z,1915.00
2023-05-05T06:55:30.308Z,1921.00
2023-05-05T06:56:30.276Z,1963.00
2023-05-05T06:57:30.283Z,1999.00
2023-05-05T06:58:30.250Z,2028.00
2023-05-05T06:59:30.239Z,2073.00
2023-05-05T07:00:30.238Z,2094.00
2023-05-05T07:01:30.201Z,2125.00
2023-05-05T07:02:30.210Z,2360.00
2023-05-05T07:03:30.149Z,2419.00
2023-05-05T07:04:30.130Z,2410.00
2023-05-05T07:05:30.091Z,2395.00
2023-05-05T07:06:30.075Z,2403.00
2023-05-05T07:07:30.035Z,2422.00
2023-05-05T07:08:29.984Z,2443.00
2023-05-05T07:09:29.995Z,2481.00
2023-05-05T07:10:30.050Z,2469.00
2023-05-05T07:11:29.892Z,2484.00
2023-05-05T07:12:29.908Z,2512.00
2023-05-05T07:13:29.877Z,2525.00
2023-05-05T07:14:29.783Z,2557.00
2023-05-05T07:15:29.969Z,2578.00
2023-05-05T07:16:29.784Z,2595.00
2023-05-05T07:17:29.711Z,2647.00
2023-05-05T07:18:29.627Z,2638.00
2023-05-05T07:19:29.584Z,2682.00
2023-05-05T07:20:29.535Z,2645.00
2023-05-05T07:21:29.520Z,2504.00
2023-05-05T07:22:29.757Z,2315.00
2023-05-05T07:23:29.507Z,2204.00
2023-05-05T07:24:29.451Z,1888.00
2023-05-05T07:25:29.394Z,1682.00
2023-05-05T07:26:29.404Z,1586.00
2023-05-05T07:27:29.290Z,1441.00
2023-05-05T07:28:29.234Z,1371.00
2023-05-05T07:29:29.199Z,1365.00
2023-05-05T07:30:29.196Z,1226.00
2023-05-05T07:31:29.182Z,1192.00
2023-05-05T07:32:29.137Z,1084.00
2023-05-05T07:33:29.059Z,849.00
2023-05-05T07:34:29.034Z,752.00
2023-05-05T07:35:29.015Z,773.00
2023-05-05T07:36:28.982Z,681.00
2023-05-05T07:37:28.957Z,771.00
2023-05-05T07:38:29.185Z,804.00
2023-05-05T07:39:28.936Z,818.00
2023-05-05T07:40:28.892Z,852.00
2023-05-05T07:41:28.847Z,811.00
2023-05-05T07:42:28.944Z,790.00
2023-05-05T07:43:28.776Z,964.00
2023-05-05T07:44:28.874Z,1049.00
2023-05-05T07:45:28.685Z,1041.00
2023-05-05T07:46:28.775Z,984.00
2023-05-05T07:47:28.621Z,926.00
2023-05-05T07:48:28.569Z,879.00
2023-05-05T07:49:28.498Z,833.00
2023-05-05T07:50:28.458Z,843.00
2023-05-05T07:51:28.401Z,830.00
2023-05-05T07:52:43.316Z,832.00
2023-05-05T07:53:29.291Z,833.00
2023-05-05T07:54:28.228Z,834.00
2023-05-05T07:55:28.160Z,843.00
2023-05-05T07:56:28.101Z,841.00
2023-05-05T07:57:28.063Z,848.00
2023-05-05T07:58:28.037Z,843.00
2023-05-05T07:59:29.584Z,829.00
2023-05-05T08:00:27.843Z,837.00
2023-05-05T08:01:27.781Z,851.00
2023-05-05T08:02:27.804Z,839.00
2023-05-05T08:03:27.766Z,870.00
2023-05-05T08:04:27.613Z,916.00
2023-05-05T08:05:27.539Z,903.00
2023-05-05T08:06:27.478Z,934.00
2023-05-05T08:07:27.429Z,992.00
2023-05-05T08:08:27.352Z,960.00
2023-05-05T08:09:27.274Z,928.00
2023-05-05T08:10:27.224Z,843.00
2023-05-05T08:11:29.466Z,591.00
2023-05-05T08:12:27.403Z,518.00
2023-05-05T08:13:27.103Z,505.00
2023-05-05T08:14:27.283Z,410.00
2023-05-05T08:15:26.989Z,400.00
2023-05-05T08:16:26.982Z,400.00
2023-05-05T08:17:26.881Z,400.00
2023-05-05T08:18:26.814Z,467.00
2023-05-05T08:19:29.280Z,538.00
2023-05-05T08:20:26.730Z,545.00
2023-05-05T08:21:26.661Z,560.00
2023-05-05T08:22:27.175Z,584.00
2023-05-05T08:23:26.592Z,593.00
2023-05-05T08:24:26.506Z,575.00
2023-05-05T08:25:26.454Z,497.00
2023-05-05T08:26:26.403Z,509.00
2023-05-05T08:27:26.362Z,536.00
2023-05-05T08:28:26.298Z,582.00
2023-05-05T08:29:26.266Z,590.00
2023-05-05T08:30:26.298Z,569.00
2023-05-05T08:31:26.153Z,575.00
2023-05-05T08:32:27.863Z,619.00
2023-05-05T08:33:26.016Z,608.00
2023-05-05T08:34:25.966Z,621.00
2023-05-05T08:35:25.920Z,620.00
2023-05-05T08:36:25.843Z,632.00
2023-05-05T08:37:25.805Z,663.00
2023-05-05T08:38:26.224Z,703.00
2023-05-05T08:39:25.678Z,723.00
2023-05-05T08:40:25.634Z,725.00
2023-05-05T08:41:25.593Z,746.00
2023-05-05T08:42:36.168Z,776.00
2023-05-05T08:43:26.458Z,780.00
2023-05-05T08:44:25.388Z,791.00
2023-05-05T08:45:25.326Z,819.00
2023-05-05T08:46:25.338Z,853.00
2023-05-05T08:47:25.206Z,908.00
2023-05-05T08:48:25.134Z,936.00
2023-05-05T08:49:25.064Z,967.00
2023-05-05T08:50:24.998Z,959.00
2023-05-05T08:51:24.986Z,980.00
2023-05-05T08:52:25.022Z,973.00
2023-05-05T08:53:24.973Z,990.00
2023-05-05T08:54:24.969Z,1000.00
2023-05-05T08:55:24.969Z,1027.00
2023-05-05T08:56:24.968Z,1026.00
2023-05-05T08:57:24.989Z,1045.00
2023-05-05T08:58:26.908Z,1072.00
2023-05-05T08:59:24.894Z,1111.00
2023-05-05T09:00:24.809Z,1105.00
2023-05-05T09:01:24.803Z,1096.00
2023-05-05T09:02:24.986Z,1097.00
2023-05-05T09:03:24.793Z,1097.00
2023-05-05T09:04:24.568Z,1076.00
2023-05-05T09:05:24.482Z,1097.00
2023-05-05T09:06:24.469Z,1073.00
2023-05-05T09:07:24.352Z,1083.00
2023-05-05T09:08:24.285Z,1096.00
2023-05-05T09:09:24.216Z,1097.00
2023-05-05T09:10:24.654Z,1109.00
2023-05-05T09:11:24.091Z,1108.00
2023-05-05T09:12:24.017Z,1114.00
2023-05-05T09:13:23.958Z,1119.00
2023-05-05T09:14:23.873Z,1115.00
2023-05-05T09:15:23.819Z,1131.00
2023-05-05T09:16:23.804Z,1186.00
2023-05-05T09:17:23.746Z,1236.00
2023-05-05T09:18:23.630Z,1220.00
2023-05-05T09:19:23.551Z,1234.00
2023-05-05T09:20:23.483Z,1283.00
2023-05-05T09:21:23.418Z,1292.00
2023-05-05T09:22:23.353Z,1335.00
2023-05-05T09:23:23.291Z,1363.00
2023-05-05T09:24:23.214Z,1407.00
2023-05-05T09:25:23.147Z,1428.00
2023-05-05T09:26:23.704Z,1454.00
2023-05-05T09:27:22.998Z,1487.00
2023-05-05T09:28:22.912Z,1507.00
2023-05-05T09:29:22.821Z,1523.00
2023-05-05T09:30:22.753Z,1548.00
2023-05-05T09:31:22.812Z,1543.00
2023-05-05T09:32:22.722Z,1585.00
2023-05-05T09:33:22.567Z,1591.00
2023-05-05T09:34:22.597Z,1616.00
2023-05-05T09:35:22.540Z,1625.00
2023-05-05T09:36:22.516Z,1660.00
2023-05-05T09:37:22.497Z,1687.00
2023-05-05T09:38:22.484Z,1697.00
2023-05-05T09:39:22.459Z,1717.00
2023-05-05T09:40:22.461Z,1723.00
2023-05-05T09:41:22.416Z,1762.00
2023-05-05T09:42:22.391Z,1762.00
2023-05-05T09:43:22.387Z,1784.00
2023-05-05T09:44:22.346Z,1793.00
2023-05-05T09:45:22.309Z,1806.00
2023-05-05T09:46:22.432Z,1831.00
2023-05-05T09:47:29.344Z,1842.00
2023-05-05T09:48:23.745Z,1844.00
2023-05-05T09:49:22.115Z,1848.00
2023-05-05T09:50:22.106Z,1862.00
2023-05-05T09:51:21.955Z,1879.00
2023-05-05T09:52:21.881Z,1900.00
2023-05-05T09:53:21.850Z,1927.00
2023-05-05T09:54:21.792Z,1945.00
2023-05-05T09:55:21.639Z,1960.00
2023-05-05T09:56:21.568Z,1975.00
2023-05-05T09:57:21.499Z,1990.00
2023-05-05T09:58:23.152Z,2002.00
2023-05-05T09:59:21.394Z,2023.00
2023-05-05T10:00:22.228Z,2025.00
2023-05-05T10:01:21.365Z,2032.00
2023-05-05T10:02:21.302Z,2039.00
2023-05-05T10:03:21.291Z,2031.00
2023-05-05T10:04:21.315Z,2005.00
2023-05-05T10:05:21.299Z,1992.00
2023-05-05T10:06:21.244Z,1948.00
2023-05-05T10:07:21.143Z,1888.00
2023-05-05T10:08:21.133Z,1826.00
2023-05-05T10:09:21.085Z,1801.00
2023-05-05T10:10:21.063Z,1799.00
2023-05-05T10:11:21.040Z,1787.00
2023-05-05T10:12:21.008Z,1783.00
2023-05-05T10:13:21.021Z,1800.00
2023-05-05T10:14:21.214Z,1793.00
2023-05-05T10:15:21.006Z,1787.00
2023-05-05T10:16:21.002Z,1792.00
2023-05-05T10:17:20.976Z,1778.00
2023-05-05T10:18:20.979Z,1786.00
2023-05-05T10:19:21.636Z,1785.00
2023-05-05T10:20:20.995Z,1792.00
2023-05-05T10:21:20.960Z,1790.00
2023-05-05T10:22:21.137Z,1793.00
2023-05-05T10:23:20.970Z,1795.00
2023-05-05T10:24:21.656Z,1787.00
2023-05-05T10:25:20.978Z,1790.00
2023-05-05T10:26:20.969Z,1838.00
2023-05-05T10:27:20.975Z,1815.00
2023-05-05T10:28:20.961Z,1804.00
2023-05-05T10:29:20.960Z,1811.00
2023-05-05T10:30:20.905Z,1805.00
2023-05-05T10:31:26.296Z,1799.00
2023-05-05T10:34:20.707Z,1802.00
2023-05-05T10:35:20.601Z,1805.00
2023-05-05T10:36:20.540Z,1809.00
2023-05-05T10:37:20.472Z,1816.00
2023-05-05T10:38:20.470Z,1810.00
2023-05-05T10:39:20.354Z,1820.00
2023-05-05T10:40:20.285Z,1806.00
2023-05-05T10:41:20.223Z,1815.00
2023-05-05T10:42:20.164Z,1803.00
2023-05-05T10:43:20.109Z,1790.00
2023-05-05T10:44:20.040Z,1781.00
2023-05-05T10:45:20.824Z,1790.00
2023-05-05T10:46:19.937Z,1776.00
2023-05-05T10:47:19.861Z,1791.00
2023-05-05T10:48:19.778Z,1767.00
2023-05-05T10:49:19.793Z,1777.00
2023-05-05T10:50:19.742Z,1766.00
2023-05-05T10:51:31.070Z,1762.00
2023-05-05T10:52:20.510Z,1764.00
2023-05-05T10:53:19.442Z,1766.00
2023-05-05T10:54:19.502Z,1765.00
2023-05-05T10:55:19.347Z,1758.00
2023-05-05T10:56:19.300Z,1760.00
2023-05-05T10:57:19.325Z,1756.00
2023-05-05T10:58:19.136Z,1747.00
2023-05-05T10:59:19.084Z,1746.00
2023-05-05T11:00:19.142Z,1743.00
2023-05-05T11:01:18.989Z,1727.00
2023-05-05T11:02:18.896Z,1713.00
2023-05-05T11:03:18.867Z,1712.00
2023-05-05T11:04:19.786Z,1724.00
2023-05-05T11:05:18.703Z,1721.00
2023-05-05T11:06:18.630Z,1712.00
2023-05-05T11:07:18.564Z,1722.00
2023-05-05T11:08:18.505Z,1719.00
2023-05-05T11:09:18.415Z,1688.00
2023-05-05T11:10:18.390Z,1707.00
2023-05-05T11:11:18.273Z,1716.00
2023-05-05T11:12:18.209Z,1706.00
2023-05-05T11:13:18.227Z,1693.00
2023-05-05T11:14:18.109Z,1701.00
2023-05-05T11:15:18.065Z,1713.00
2023-05-05T11:16:18.027Z,1696.00
2023-05-05T11:17:17.999Z,1681.00
2023-05-05T11:18:18.018Z,1681.00
2023-05-05T11:19:17.881Z,1684.00
2023-05-05T11:20:17.831Z,1686.00
2023-05-05T11:21:17.915Z,1674.00
2023-05-05T11:22:17.829Z,1671.00
2023-05-05T11:23:17.782Z,1656.00
2023-05-05T11:24:17.662Z,1665.00
2023-05-05T11:25:17.631Z,1660.00
2023-05-05T11:26:17.695Z,1669.00
2023-05-05T11:27:17.518Z,1668.00
2023-05-05T11:28:17.489Z,1659.00
2023-05-05T11:29:17.436Z,1671.00
2023-05-05T11:30:17.391Z,1648.00
2023-05-05T11:31:17.404Z,1656.00
2023-05-05T11:32:17.334Z,1648.00
2023-05-05T11:33:17.268Z,1649.00
2023-05-05T11:34:17.238Z,1637.00
2023-05-05T11:35:17.201Z,1653.00
2023-05-05T11:36:17.141Z,1646.00
2023-05-05T11:37:17.115Z,1631.00
2023-05-05T11:38:17.058Z,1637.00
2023-05-05T11:39:17.092Z,1634.00
2023-05-05T11:40:16.961Z,1631.00
2023-05-05T11:41:16.911Z,1622.00
2023-05-05T11:42:16.919Z,1628.00
2023-05-05T11:43:16.819Z,1623.00
2023-05-05T11:44:16.793Z,1626.00
2023-05-05T11:45:16.726Z,1606.00
2023-05-05T11:46:16.757Z,1627.00
2023-05-05T11:47:16.725Z,1631.00
2023-05-05T11:48:16.657Z,1618.00
2023-05-05T11:49:16.595Z,1613.00
2023-05-05T11:50:17.503Z,1614.00
2023-05-05T11:51:16.452Z,1614.00
2023-05-05T11:52:16.364Z,1594.00
2023-05-05T11:53:16.303Z,1613.00
2023-05-05T11:54:16.241Z,1597.00
2023-05-05T11:55:16.183Z,1609.00
2023-05-05T11:56:16.113Z,1612.00
2023-05-05T11:57:16.051Z,1591.00
2023-05-05T11:58:15.969Z,1593.00
2023-05-05T11:59:15.908Z,1577.00
2023-05-05T12:00:15.829Z,1589.00
2023-05-05T12:01:15.773Z,1582.00
2023-05-05T12:02:15.758Z,1568.00
2023-05-05T12:03:15.796Z,1560.00
2023-05-05T12:04:15.697Z,1569.00
2023-05-05T12:05:15.504Z,1553.00
2023-05-05T12:06:15.433Z,1571.00
2023-05-05T12:07:15.378Z,1547.00
2023-05-05T12:08:15.302Z,1534.00
2023-05-05T12:09:15.245Z,1539.00
2023-05-05T12:10:15.167Z,1538.00
2023-05-05T12:11:15.104Z,1543.00